sensor_id;sensor_type;location;lat;lon;timestamp;pressure;altitude;pressure_sealevel;temperature;humidity
59194;BME280;44967;48.598;15.650;2023-02-12T00:00:35;99801.13;;;5.29;76.57
59194;BME280;44967;48.598;15.650;2023-02-12T00:03:01;99798.50;;;5.30;76.55
59194;BME280;44967;48.598;15.650;2023-02-12T00:05:27;99791.47;;;5.26;76.76
59194;BME280;44967;48.598;15.650;2023-02-12T00:07:53;99786.13;;;5.20;76.64
59194;BME280;44967;48.598;15.650;2023-02-12T00:10:19;99790.41;;;5.15;76.97
59194;BME280;44967;48.598;15.650;2023-02-12T00:12:45;99782.56;;;5.15;77.18
59194;BME280;44967;48.598;15.650;2023-02-12T00:15:10;99784.38;;;5.19;76.57
59194;BME280;44967;48.598;15.650;2023-02-12T00:17:36;99781.69;;;5.13;76.98
59194;BME280;44967;48.598;15.650;2023-02-12T00:20:02;99782.50;;;5.09;76.92
59194;BME280;44967;48.598;15.650;2023-02-12T00:22:28;99786.91;;;5.13;77.16
59194;BME280;44967;48.598;15.650;2023-02-12T00:24:54;99787.06;;;5.23;76.88
59194;BME280;44967;48.598;15.650;2023-02-12T00:27:20;99794.97;;;5.25;76.62
59194;BME280;44967;48.598;15.650;2023-02-12T00:29:46;99797.63;;;5.28;76.49
59194;BME280;44967;48.598;15.650;2023-02-12T00:32:11;99811.41;;;5.16;76.79
59194;BME280;44967;48.598;15.650;2023-02-12T00:34:39;99803.59;;;5.19;77.05
59194;BME280;44967;48.598;15.650;2023-02-12T00:37:05;99808.00;;;5.22;76.78
59194;BME280;44967;48.598;15.650;2023-02-12T00:39:31;99810.72;;;5.28;76.23
59194;BME280;44967;48.598;15.650;2023-02-12T00:41:56;99802.75;;;5.20;76.51
59194;BME280;44967;48.598;15.650;2023-02-12T00:44:22;99800.91;;;5.15;76.88
59194;BME280;44967;48.598;15.650;2023-02-12T00:46:47;99779.25;;;5.25;77.14
59194;BME280;44967;48.598;15.650;2023-02-12T00:49:13;99784.34;;;5.16;77.02
59194;BME280;44967;48.598;15.650;2023-02-12T00:51:39;99792.28;;;5.20;76.80
59194;BME280;44967;48.598;15.650;2023-02-12T00:54:04;99785.22;;;5.18;76.37
59194;BME280;44967;48.598;15.650;2023-02-12T00:56:30;99783.50;;;5.18;76.50
59194;BME280;44967;48.598;15.650;2023-02-12T00:58:55;99786.13;;;5.20;76.86
59194;BME280;44967;48.598;15.650;2023-02-12T01:01:21;99795.69;;;5.18;76.76
59194;BME280;44967;48.598;15.650;2023-02-12T01:03:47;99790.56;;;5.24;76.59
59194;BME280;44967;48.598;15.650;2023-02-12T01:06:12;99789.63;;;5.19;76.57
59194;BME280;44967;48.598;15.650;2023-02-12T01:08:38;99801.94;;;5.25;76.57
59194;BME280;44967;48.598;15.650;2023-02-12T01:11:04;99803.78;;;5.32;76.18
59194;BME280;44967;48.598;15.650;2023-02-12T01:13:31;99804.63;;;5.31;75.89
59194;BME280;44967;48.598;15.650;2023-02-12T01:16:20;99811.50;;;5.21;76.43
59194;BME280;44967;48.598;15.650;2023-02-12T01:18:46;99821.09;;;5.22;76.38
59194;BME280;44967;48.598;15.650;2023-02-12T01:21:23;99836.00;;;5.26;76.58
59194;BME280;44967;48.598;15.650;2023-02-12T01:23:49;99834.28;;;5.25;76.53
59194;BME280;44967;48.598;15.650;2023-02-12T01:26:16;99833.38;;;5.26;76.19
59194;BME280;44967;48.598;15.650;2023-02-12T01:28:44;99838.63;;;5.25;76.28
59194;BME280;44967;48.598;15.650;2023-02-12T01:31:15;99824.69;;;5.27;76.01
59194;BME280;44967;48.598;15.650;2023-02-12T01:33:41;99838.56;;;5.20;75.96
59194;BME280;44967;48.598;15.650;2023-02-12T01:36:07;99849.97;;;5.23;76.33
59194;BME280;44967;48.598;15.650;2023-02-12T01:38:33;99855.97;;;5.18;76.43
59194;BME280;44967;48.598;15.650;2023-02-12T01:41:04;99867.25;;;5.14;76.70
59194;BME280;44967;48.598;15.650;2023-02-12T01:43:30;99856.78;;;5.12;76.94
59194;BME280;44967;48.598;15.650;2023-02-12T01:45:58;99863.78;;;5.13;76.54
59194;BME280;44967;48.598;15.650;2023-02-12T01:48:26;99868.19;;;5.16;76.58
59194;BME280;44967;48.598;15.650;2023-02-12T01:50:53;99868.25;;;5.22;76.09
59194;BME280;44967;48.598;15.650;2023-02-12T01:53:21;99863.91;;;5.22;76.19
59194;BME280;44967;48.598;15.650;2023-02-12T01:55:51;99860.47;;;5.25;76.22
59194;BME280;44967;48.598;15.650;2023-02-12T01:58:18;99863.03;;;5.20;76.17
59194;BME280;44967;48.598;15.650;2023-02-12T02:00:44;99858.47;;;5.09;76.72
59194;BME280;44967;48.598;15.650;2023-02-12T02:03:10;99854.97;;;5.08;76.90
59194;BME280;44967;48.598;15.650;2023-02-12T02:05:44;99866.25;;;5.06;76.97
59194;BME280;44967;48.598;15.650;2023-02-12T02:08:15;99864.69;;;5.15;76.85
59194;BME280;44967;48.598;15.650;2023-02-12T02:10:41;99865.47;;;5.11;77.21
59194;BME280;44967;48.598;15.650;2023-02-12T02:13:06;99873.25;;;5.05;77.36
59194;BME280;44967;48.598;15.650;2023-02-12T02:15:56;99876.81;;;5.09;77.22
59194;BME280;44967;48.598;15.650;2023-02-12T02:21:32;99885.56;;;5.09;77.27
59194;BME280;44967;48.598;15.650;2023-02-12T02:27:17;99877.81;;;5.17;77.15
59194;BME280;44967;48.598;15.650;2023-02-12T02:30:11;99895.94;;;5.05;77.06
59194;BME280;44967;48.598;15.650;2023-02-12T02:32:47;99894.94;;;4.98;77.73
59194;BME280;44967;48.598;15.650;2023-02-12T02:35:37;99889.94;;;5.12;76.59
59194;BME280;44967;48.598;15.650;2023-02-12T02:38:17;99887.28;;;5.09;77.15
59194;BME280;44967;48.598;15.650;2023-02-12T02:43:25;99886.28;;;5.01;77.51
59194;BME280;44967;48.598;15.650;2023-02-12T02:46:00;99887.16;;;5.03;77.11
59194;BME280;44967;48.598;15.650;2023-02-12T02:48:44;99893.38;;;5.08;77.01
59194;BME280;44967;48.598;15.650;2023-02-12T02:51:20;99883.56;;;4.96;77.85
59194;BME280;44967;48.598;15.650;2023-02-12T02:54:18;99894.22;;;5.05;77.37
59194;BME280;44967;48.598;15.650;2023-02-12T02:56:48;99886.41;;;5.08;77.35
59194;BME280;44967;48.598;15.650;2023-02-12T02:59:24;99888.94;;;5.04;77.42
59194;BME280;44967;48.598;15.650;2023-02-12T03:01:59;99882.94;;;5.09;77.24
59194;BME280;44967;48.598;15.650;2023-02-12T03:04:28;99892.44;;;5.04;77.54
59194;BME280;44967;48.598;15.650;2023-02-12T03:07:03;99894.13;;;5.01;77.91
59194;BME280;44967;48.598;15.650;2023-02-12T03:09:46;99896.75;;;5.02;77.85
59194;BME280;44967;48.598;15.650;2023-02-12T03:12:26;99886.09;;;4.92;78.14
59194;BME280;44967;48.598;15.650;2023-02-12T03:15:00;99876.69;;;5.03;77.66
59194;BME280;44967;48.598;15.650;2023-02-12T03:17:34;99887.22;;;5.06;77.54
59194;BME280;44967;48.598;15.650;2023-02-12T03:20:08;99888.00;;;5.02;77.54
59194;BME280;44967;48.598;15.650;2023-02-12T03:22:38;99894.00;;;4.95;77.60
59194;BME280;44967;48.598;15.650;2023-02-12T03:25:36;99894.19;;;5.04;77.35
59194;BME280;44967;48.598;15.650;2023-02-12T03:28:10;99901.00;;;4.96;77.61
59194;BME280;44967;48.598;15.650;2023-02-12T03:30:50;99894.19;;;5.04;77.36
59194;BME280;44967;48.598;15.650;2023-02-12T03:33:36;99903.84;;;5.08;77.30
59194;BME280;44967;48.598;15.650;2023-02-12T03:36:28;99909.94;;;5.07;77.73
59194;BME280;44967;48.598;15.650;2023-02-12T03:42:10;99921.22;;;5.01;78.04
59194;BME280;44967;48.598;15.650;2023-02-12T03:44:45;99914.03;;;4.91;78.16
59194;BME280;44967;48.598;15.650;2023-02-12T03:47:22;99914.06;;;4.94;78.58
59194;BME280;44967;48.598;15.650;2023-02-12T03:52:18;99928.56;;;4.75;79.36
59194;BME280;44967;48.598;15.650;2023-02-12T03:54:44;99919.84;;;4.75;79.07
59194;BME280;44967;48.598;15.650;2023-02-12T03:57:19;99925.13;;;4.78;79.37
59194;BME280;44967;48.598;15.650;2023-02-12T03:59:46;99932.16;;;4.81;78.74
59194;BME280;44967;48.598;15.650;2023-02-12T04:02:14;99942.56;;;4.76;79.07
59194;BME280;44967;48.598;15.650;2023-02-12T04:04:40;99942.47;;;4.71;79.73
59194;BME280;44967;48.598;15.650;2023-02-12T04:07:05;99944.09;;;4.66;79.93
59194;BME280;44967;48.598;15.650;2023-02-12T04:09:31;99945.88;;;4.66;79.16
59194;BME280;44967;48.598;15.650;2023-02-12T04:14:55;99952.88;;;4.68;79.83
59194;BME280;44967;48.598;15.650;2023-02-12T04:20:45;99955.53;;;4.70;79.57
59194;BME280;44967;48.598;15.650;2023-02-12T04:26:22;99959.03;;;4.70;79.61
59194;BME280;44967;48.598;15.650;2023-02-12T04:29:00;99959.03;;;4.70;79.91
59194;BME280;44967;48.598;15.650;2023-02-12T04:37:26;99965.03;;;4.66;79.77
59194;BME280;44967;48.598;15.650;2023-02-12T04:39:55;99966.75;;;4.64;79.84
59194;BME280;44967;48.598;15.650;2023-02-12T04:42:22;99971.16;;;4.65;79.63
59194;BME280;44967;48.598;15.650;2023-02-12T04:44:48;99967.50;;;4.59;79.60
59194;BME280;44967;48.598;15.650;2023-02-12T04:47:15;99965.03;;;4.66;79.65
59194;BME280;44967;48.598;15.650;2023-02-12T04:49:41;99967.00;;;4.77;80.12
59194;BME280;44967;48.598;15.650;2023-02-12T04:52:07;99969.47;;;4.69;79.39
59194;BME280;44967;48.598;15.650;2023-02-12T04:54:34;99971.47;;;4.81;79.33
59194;BME280;44967;48.598;15.650;2023-02-12T04:56:59;99975.75;;;4.77;79.09
59194;BME280;44967;48.598;15.650;2023-02-12T04:59:25;99976.59;;;4.76;79.34
59194;BME280;44967;48.598;15.650;2023-02-12T05:01:51;99975.72;;;4.75;79.25
59194;BME280;44967;48.598;15.650;2023-02-12T05:04:17;99976.41;;;4.65;78.80
59194;BME280;44967;48.598;15.650;2023-02-12T05:06:44;99980.94;;;4.75;78.51
59194;BME280;44967;48.598;15.650;2023-02-12T05:09:18;99988.59;;;4.66;78.78
59194;BME280;44967;48.598;15.650;2023-02-12T05:11:44;99987.47;;;4.52;78.96
59194;BME280;44967;48.598;15.650;2023-02-12T05:14:10;99987.34;;;4.46;79.71
59194;BME280;44967;48.598;15.650;2023-02-12T05:16:36;99990.19;;;4.58;79.06
59194;BME280;44967;48.598;15.650;2023-02-12T05:19:02;100000.66;;;4.58;78.73
59194;BME280;44967;48.598;15.650;2023-02-12T05:21:27;99997.94;;;4.52;78.74
59194;BME280;44967;48.598;15.650;2023-02-12T05:23:52;100006.72;;;4.56;79.26
59194;BME280;44967;48.598;15.650;2023-02-12T05:26:20;100011.03;;;4.52;79.00
59194;BME280;44967;48.598;15.650;2023-02-12T05:28:46;100006.38;;;4.39;80.03
59194;BME280;44967;48.598;15.650;2023-02-12T05:31:15;100015.22;;;4.44;80.08
59194;BME280;44967;48.598;15.650;2023-02-12T05:33:45;100016.13;;;4.46;79.94
59194;BME280;44967;48.598;15.650;2023-02-12T05:36:14;100018.03;;;4.53;79.70
59194;BME280;44967;48.598;15.650;2023-02-12T05:38:40;100031.13;;;4.55;79.01
59194;BME280;44967;48.598;15.650;2023-02-12T05:41:10;100026.69;;;4.51;79.35
59194;BME280;44967;48.598;15.650;2023-02-12T05:43:36;100032.19;;;4.63;79.83
59194;BME280;44967;48.598;15.650;2023-02-12T05:46:03;100028.66;;;4.61;79.08
59194;BME280;44967;48.598;15.650;2023-02-12T05:48:29;100029.47;;;4.58;79.34
59194;BME280;44967;48.598;15.650;2023-02-12T05:51:04;100033.84;;;4.58;79.24
59194;BME280;44967;48.598;15.650;2023-02-12T05:53:30;100034.78;;;4.61;79.47
59194;BME280;44967;48.598;15.650;2023-02-12T05:58:35;100040.88;;;4.60;78.80
59194;BME280;44967;48.598;15.650;2023-02-12T06:01:01;100042.53;;;4.57;79.25
59194;BME280;44967;48.598;15.650;2023-02-12T06:03:26;100036.53;;;4.62;79.34
59194;BME280;44967;48.598;15.650;2023-02-12T06:05:53;100038.03;;;4.51;78.78
59194;BME280;44967;48.598;15.650;2023-02-12T06:08:18;100041.53;;;4.50;78.54
59194;BME280;44967;48.598;15.650;2023-02-12T06:10:44;100052.06;;;4.53;78.97
59194;BME280;44967;48.598;15.650;2023-02-12T06:13:09;100048.31;;;4.42;78.57
59194;BME280;44967;48.598;15.650;2023-02-12T06:15:35;100062.09;;;4.35;78.95
59194;BME280;44967;48.598;15.650;2023-02-12T06:18:01;100065.59;;;4.34;79.19
59194;BME280;44967;48.598;15.650;2023-02-12T06:20:27;100070.66;;;4.28;79.52
59194;BME280;44967;48.598;15.650;2023-02-12T06:22:52;100078.50;;;4.26;79.06
59194;BME280;44967;48.598;15.650;2023-02-12T06:25:18;100082.63;;;4.17;79.50
59194;BME280;44967;48.598;15.650;2023-02-12T06:27:44;100090.47;;;4.17;79.42
59194;BME280;44967;48.598;15.650;2023-02-12T06:30:10;100096.53;;;4.16;79.77
59194;BME280;44967;48.598;15.650;2023-02-12T06:32:35;100097.44;;;4.16;80.03
59194;BME280;44967;48.598;15.650;2023-02-12T06:35:01;100101.78;;;4.16;79.74
59194;BME280;44967;48.598;15.650;2023-02-12T06:37:26;100101.84;;;4.19;79.48
59194;BME280;44967;48.598;15.650;2023-02-12T06:39:52;100092.44;;;4.25;80.12
59194;BME280;44967;48.598;15.650;2023-02-12T06:42:18;100102.22;;;4.34;79.25
59194;BME280;44967;48.598;15.650;2023-02-12T06:44:44;100096.91;;;4.31;79.19
59194;BME280;44967;48.598;15.650;2023-02-12T06:47:11;100100.47;;;4.35;79.78
59194;BME280;44967;48.598;15.650;2023-02-12T06:49:36;100100.81;;;4.48;79.53
59194;BME280;44967;48.598;15.650;2023-02-12T06:52:02;100108.81;;;4.56;79.22
59194;BME280;44967;48.598;15.650;2023-02-12T06:54:27;100115.06;;;4.62;79.14
59194;BME280;44967;48.598;15.650;2023-02-12T06:56:53;100119.47;;;4.63;78.75
59194;BME280;44967;48.598;15.650;2023-02-12T06:59:19;100120.41;;;4.65;78.56
59194;BME280;44967;48.598;15.650;2023-02-12T07:01:45;100124.84;;;4.69;78.50
59194;BME280;44967;48.598;15.650;2023-02-12T07:04:11;100132.03;;;4.80;78.13
59194;BME280;44967;48.598;15.650;2023-02-12T07:06:36;100127.75;;;4.83;77.97
59194;BME280;44967;48.598;15.650;2023-02-12T07:09:04;100140.06;;;4.86;77.86
59194;BME280;44967;48.598;15.650;2023-02-12T07:11:31;100146.16;;;4.86;78.16
59194;BME280;44967;48.598;15.650;2023-02-12T07:13:57;100145.53;;;4.96;77.87
59194;BME280;44967;48.598;15.650;2023-02-12T07:16:23;100146.47;;;5.00;77.38
59194;BME280;44967;48.598;15.650;2023-02-12T07:18:49;100150.75;;;4.98;77.69
59194;BME280;44967;48.598;15.650;2023-02-12T07:21:15;100150.84;;;5.01;76.99
59194;BME280;44967;48.598;15.650;2023-02-12T07:23:41;100158.66;;;4.99;77.95
59194;BME280;44967;48.598;15.650;2023-02-12T07:26:10;100164.84;;;5.03;77.48
59194;BME280;44967;48.598;15.650;2023-02-12T07:28:36;100155.31;;;5.05;77.50
59194;BME280;44967;48.598;15.650;2023-02-12T07:31:09;100159.88;;;5.15;77.23
59194;BME280;44967;48.598;15.650;2023-02-12T07:33:36;100158.31;;;5.23;76.79
59194;BME280;44967;48.598;15.650;2023-02-12T07:36:03;100166.91;;;5.16;76.64
59194;BME280;44967;48.598;15.650;2023-02-12T07:38:29;100165.13;;;5.13;77.08
59194;BME280;44967;48.598;15.650;2023-02-12T07:41:04;100170.41;;;5.18;76.77
59194;BME280;44967;48.598;15.650;2023-02-12T07:43:29;100167.88;;;5.21;76.81
59194;BME280;44967;48.598;15.650;2023-02-12T07:45:55;100172.34;;;5.27;76.51
59194;BME280;44967;48.598;15.650;2023-02-12T07:48:20;100170.53;;;5.22;76.85
59194;BME280;44967;48.598;15.650;2023-02-12T07:50:46;100174.19;;;5.31;76.42
59194;BME280;44967;48.598;15.650;2023-02-12T07:53:11;100162.97;;;5.36;76.32
59194;BME280;44967;48.598;15.650;2023-02-12T07:55:37;100166.63;;;5.46;76.28
59194;BME280;44967;48.598;15.650;2023-02-12T07:58:02;100165.69;;;5.41;76.18
59194;BME280;44967;48.598;15.650;2023-02-12T08:00:31;100160.69;;;5.54;75.61
59194;BME280;44967;48.598;15.650;2023-02-12T08:02:57;100162.38;;;5.51;75.66
59194;BME280;44967;48.598;15.650;2023-02-12T08:05:22;100170.44;;;5.60;75.41
59194;BME280;44967;48.598;15.650;2023-02-12T08:07:48;100172.31;;;5.67;75.15
59194;BME280;44967;48.598;15.650;2023-02-12T08:10:14;100168.75;;;5.63;75.70
59194;BME280;44967;48.598;15.650;2023-02-12T08:12:39;100169.69;;;5.67;74.96
59194;BME280;44967;48.598;15.650;2023-02-12T08:15:05;100176.59;;;5.63;74.35
59194;BME280;44967;48.598;15.650;2023-02-12T08:17:30;100182.69;;;5.62;75.06
59194;BME280;44967;48.598;15.650;2023-02-12T08:19:56;100186.25;;;5.66;75.36
59194;BME280;44967;48.598;15.650;2023-02-12T08:22:21;100183.69;;;5.69;75.10
59194;BME280;44967;48.598;15.650;2023-02-12T08:24:47;100192.44;;;5.69;74.58
59194;BME280;44967;48.598;15.650;2023-02-12T08:27:12;100190.81;;;5.75;74.39
59194;BME280;44967;48.598;15.650;2023-02-12T08:29:38;100200.50;;;5.79;74.76
59194;BME280;44967;48.598;15.650;2023-02-12T08:32:04;100203.50;;;5.97;74.47
59194;BME280;44967;48.598;15.650;2023-02-12T08:34:33;100199.00;;;5.90;74.31
59194;BME280;44967;48.598;15.650;2023-02-12T08:37:00;100199.84;;;5.89;74.05
59194;BME280;44967;48.598;15.650;2023-02-12T08:39:27;100209.72;;;6.02;74.06
59194;BME280;44967;48.598;15.650;2023-02-12T08:41:58;100219.63;;;6.18;74.26
59194;BME280;44967;48.598;15.650;2023-02-12T08:44:24;100206.44;;;6.13;74.07
59194;BME280;44967;48.598;15.650;2023-02-12T08:46:51;100212.66;;;6.19;73.97
59194;BME280;44967;48.598;15.650;2023-02-12T08:49:19;100212.75;;;6.23;73.64
59194;BME280;44967;48.598;15.650;2023-02-12T08:51:47;100221.63;;;6.31;73.48
59194;BME280;44967;48.598;15.650;2023-02-12T08:54:15;100217.28;;;6.33;72.33
59194;BME280;44967;48.598;15.650;2023-02-12T08:56:42;100212.28;;;6.47;72.33
59194;BME280;44967;48.598;15.650;2023-02-12T08:59:10;100218.34;;;6.44;72.34
59194;BME280;44967;48.598;15.650;2023-02-12T09:01:37;100221.09;;;6.50;71.63
59194;BME280;44967;48.598;15.650;2023-02-12T09:04:03;100224.00;;;6.69;72.08
59194;BME280;44967;48.598;15.650;2023-02-12T09:06:31;100234.38;;;6.59;71.00
59194;BME280;44967;48.598;15.650;2023-02-12T09:08:57;100237.84;;;6.60;71.53
59194;BME280;44967;48.598;15.650;2023-02-12T09:11:25;100228.31;;;6.65;70.91
59194;BME280;44967;48.598;15.650;2023-02-12T09:13:57;100237.25;;;6.76;70.18
59194;BME280;44967;48.598;15.650;2023-02-12T09:16:24;100230.34;;;6.81;70.47
59194;BME280;44967;48.598;15.650;2023-02-12T09:18:50;100230.28;;;6.80;69.93
59194;BME280;44967;48.598;15.650;2023-02-12T09:21:15;100237.44;;;6.87;70.26
59194;BME280;44967;48.598;15.650;2023-02-12T09:23:44;100237.28;;;6.78;69.89
59194;BME280;44967;48.598;15.650;2023-02-12T09:26:18;100237.47;;;6.90;69.64
59194;BME280;44967;48.598;15.650;2023-02-12T09:28:47;100232.19;;;6.88;69.06
59194;BME280;44967;48.598;15.650;2023-02-12T09:31:16;100248.75;;;6.83;68.42
59194;BME280;44967;48.598;15.650;2023-02-12T09:33:42;100242.59;;;6.79;68.50
59194;BME280;44967;48.598;15.650;2023-02-12T09:36:13;100248.66;;;6.77;68.52
59194;BME280;44967;48.598;15.650;2023-02-12T09:38:40;100244.44;;;6.86;68.35
59194;BME280;44967;48.598;15.650;2023-02-12T09:46:52;100249.16;;;7.07;67.79
59194;BME280;44967;48.598;15.650;2023-02-12T09:51:50;100242.94;;;7.03;67.45
59194;BME280;44967;48.598;15.650;2023-02-12T09:54:22;100249.91;;;7.01;67.66
59194;BME280;44967;48.598;15.650;2023-02-12T09:56:54;100249.44;;;7.28;67.13
59194;BME280;44967;48.598;15.650;2023-02-12T09:59:45;100248.44;;;7.20;67.01
59194;BME280;44967;48.598;15.650;2023-02-12T10:02:17;100251.34;;;7.38;66.67
59194;BME280;44967;48.598;15.650;2023-02-12T10:04:45;100249.63;;;7.43;66.14
59194;BME280;44967;48.598;15.650;2023-02-12T10:10:38;100260.34;;;7.57;66.06
59194;BME280;44967;48.598;15.650;2023-02-12T10:12:44;100266.44;;;7.53;65.11
59194;BME280;44967;48.598;15.650;2023-02-12T10:15:34;100265.59;;;7.54;66.06
59194;BME280;44967;48.598;15.650;2023-02-12T10:24:30;100258.09;;;7.87;65.29
59194;BME280;44967;48.598;15.650;2023-02-12T10:27:08;100252.09;;;7.99;64.98
59194;BME280;44967;48.598;15.650;2023-02-12T10:29:38;100263.66;;;8.13;64.25
59194;BME280;44967;48.598;15.650;2023-02-12T10:32:25;100251.38;;;8.14;63.61
59194;BME280;44967;48.598;15.650;2023-02-12T10:34:52;100252.25;;;8.14;63.76
59194;BME280;44967;48.598;15.650;2023-02-12T10:39:57;100236.44;;;8.14;63.82
59194;BME280;44967;48.598;15.650;2023-02-12T10:44:58;100251.66;;;8.38;63.88
59194;BME280;44967;48.598;15.650;2023-02-12T10:47:23;100245.59;;;8.46;63.15
59194;BME280;44967;48.598;15.650;2023-02-12T10:50:01;100244.75;;;8.49;63.13
59194;BME280;44967;48.598;15.650;2023-02-12T10:52:52;100239.47;;;8.49;62.31
59194;BME280;44967;48.598;15.650;2023-02-12T10:55:26;100242.00;;;8.37;62.58
59194;BME280;44967;48.598;15.650;2023-02-12T10:57:53;100234.84;;;8.25;63.10
59194;BME280;44967;48.598;15.650;2023-02-12T11:00:29;100231.25;;;8.20;63.23
59194;BME280;44967;48.598;15.650;2023-02-12T11:05:38;100218.41;;;8.49;64.34
59194;BME280;44967;48.598;15.650;2023-02-12T11:08:06;100217.69;;;8.68;63.35
59194;BME280;44967;48.598;15.650;2023-02-12T11:10:37;100208.09;;;8.76;61.88
59194;BME280;44967;48.598;15.650;2023-02-12T11:13:03;100217.75;;;8.76;62.46
59194;BME280;44967;48.598;15.650;2023-02-12T11:15:36;100209.88;;;8.83;62.12
59194;BME280;44967;48.598;15.650;2023-02-12T11:18:05;100210.78;;;8.84;62.67
59194;BME280;44967;48.598;15.650;2023-02-12T11:20:37;100205.41;;;8.75;61.33
59194;BME280;44967;48.598;15.650;2023-02-12T11:23:06;100201.13;;;8.89;61.70
59194;BME280;44967;48.598;15.650;2023-02-12T11:25:58;100204.81;;;9.17;59.87
59194;BME280;44967;48.598;15.650;2023-02-12T11:28:25;100200.47;;;9.23;60.63
59194;BME280;44967;48.598;15.650;2023-02-12T11:33:37;100214.38;;;8.98;58.92
59194;BME280;44967;48.598;15.650;2023-02-12T11:36:22;100205.69;;;9.17;59.78
59194;BME280;44967;48.598;15.650;2023-02-12T11:38:52;100215.50;;;9.41;59.50
59194;BME280;44967;48.598;15.650;2023-02-12T11:41:39;100206.47;;;8.98;58.77
59194;BME280;44967;48.598;15.650;2023-02-12T11:44:38;100197.72;;;9.04;58.72
59194;BME280;44967;48.598;15.650;2023-02-12T11:47:09;100199.53;;;9.12;59.77
59194;BME280;44967;48.598;15.650;2023-02-12T11:49:48;100187.16;;;9.05;59.74
59194;BME280;44967;48.598;15.650;2023-02-12T11:52:27;100190.56;;;8.89;60.57
59194;BME280;44967;48.598;15.650;2023-02-12T11:54:58;100186.13;;;8.76;61.28
59194;BME280;44967;48.598;15.650;2023-02-12T11:57:44;100183.50;;;8.79;60.44
59194;BME280;44967;48.598;15.650;2023-02-12T12:02:48;100188.97;;;9.08;60.20
59194;BME280;44967;48.598;15.650;2023-02-12T12:05:18;100182.78;;;9.07;59.44
59194;BME280;44967;48.598;15.650;2023-02-12T12:07:49;100174.91;;;9.10;59.58
59194;BME280;44967;48.598;15.650;2023-02-12T12:10:39;100181.00;;;9.00;59.99
59194;BME280;44967;48.598;15.650;2023-02-12T12:13:13;100178.47;;;9.20;60.20
59194;BME280;44967;48.598;15.650;2023-02-12T12:15:46;100184.56;;;9.11;59.00
59194;BME280;44967;48.598;15.650;2023-02-12T12:21:53;100188.88;;;8.97;57.68
59194;BME280;44967;48.598;15.650;2023-02-12T12:24:34;100184.44;;;8.87;58.50
59194;BME280;44967;48.598;15.650;2023-02-12T12:27:13;100188.84;;;8.91;58.77
59194;BME280;44967;48.598;15.650;2023-02-12T12:30:02;100186.19;;;8.86;58.32
59194;BME280;44967;48.598;15.650;2023-02-12T12:32:34;100186.22;;;8.92;58.59
59194;BME280;44967;48.598;15.650;2023-02-12T12:35:02;100183.56;;;8.89;57.62
59194;BME280;44967;48.598;15.650;2023-02-12T12:38:03;100183.56;;;8.89;58.26
59194;BME280;44967;48.598;15.650;2023-02-12T12:40:51;100179.19;;;8.93;57.82
59194;BME280;44967;48.598;15.650;2023-02-12T12:43:37;100180.03;;;8.89;57.64
59194;BME280;44967;48.598;15.650;2023-02-12T12:54:19;100188.97;;;9.08;56.33
59194;BME280;44967;48.598;15.650;2023-02-12T12:56:57;100185.44;;;9.04;56.81
59194;BME280;44967;48.598;15.650;2023-02-12T13:02:27;100180.97;;;8.97;57.16
59194;BME280;44967;48.598;15.650;2023-02-12T13:22:57;100180.75;;;8.64;56.74
59194;BME280;44967;48.598;15.650;2023-02-12T13:27:50;100187.81;;;8.68;56.86
59194;BME280;44967;48.598;15.650;2023-02-12T13:30:25;100181.59;;;8.60;56.73
59194;BME280;44967;48.598;15.650;2023-02-12T13:33:13;100182.53;;;8.68;56.64
59194;BME280;44967;48.598;15.650;2023-02-12T13:35:44;100187.63;;;8.46;56.84
59194;BME280;44967;48.598;15.650;2023-02-12T13:38:19;100182.34;;;8.46;58.05
59194;BME280;44967;48.598;15.650;2023-02-12T13:40:46;100179.88;;;8.65;57.94
59194;BME280;44967;48.598;15.650;2023-02-12T13:52:41;100182.41;;;8.52;58.54
59194;BME280;44967;48.598;15.650;2023-02-12T13:55:41;100175.34;;;8.47;57.92
59194;BME280;44967;48.598;15.650;2023-02-12T14:00:59;100177.19;;;8.59;58.27
59194;BME280;44967;48.598;15.650;2023-02-12T14:03:26;100180.56;;;8.42;58.28
59194;BME280;44967;48.598;15.650;2023-02-12T14:09:09;100181.19;;;8.19;59.30
59194;BME280;44967;48.598;15.650;2023-02-12T14:11:49;100183.75;;;8.08;59.96
59194;BME280;44967;48.598;15.650;2023-02-12T14:14:49;100190.81;;;8.15;59.10
59194;BME280;44967;48.598;15.650;2023-02-12T14:27:52;100201.16;;;7.94;60.08
59194;BME280;44967;48.598;15.650;2023-02-12T14:38:00;100202.81;;;7.86;61.65
59194;BME280;44967;48.598;15.650;2023-02-12T14:43:01;100203.72;;;7.91;61.11
59194;BME280;44967;48.598;15.650;2023-02-12T14:45:34;100199.34;;;7.90;60.85
59194;BME280;44967;48.598;15.650;2023-02-12T14:48:02;100197.59;;;7.89;61.05
59194;BME280;44967;48.598;15.650;2023-02-12T14:50:36;100206.41;;;7.94;60.52
59194;BME280;44967;48.598;15.650;2023-02-12T14:53:25;100197.59;;;7.89;60.70
59194;BME280;44967;48.598;15.650;2023-02-12T14:55:51;100205.41;;;7.81;61.30
59194;BME280;44967;48.598;15.650;2023-02-12T14:58:20;100206.22;;;7.79;61.69
59194;BME280;44967;48.598;15.650;2023-02-12T15:00:54;100209.75;;;7.78;61.17
59194;BME280;44967;48.598;15.650;2023-02-12T15:03:51;100200.88;;;7.70;61.52
59194;BME280;44967;48.598;15.650;2023-02-12T15:06:21;100202.59;;;7.68;61.11
59194;BME280;44967;48.598;15.650;2023-02-12T15:11:43;100220.88;;;7.58;61.74
59194;BME280;44967;48.598;15.650;2023-02-12T15:16:48;100217.31;;;7.50;62.58
59194;BME280;44967;48.598;15.650;2023-02-12T15:21:45;100208.47;;;7.47;62.79
59194;BME280;44967;48.598;15.650;2023-02-12T15:24:13;100220.63;;;7.39;62.99
59194;BME280;44967;48.598;15.650;2023-02-12T15:26:50;100210.06;;;7.33;62.99
59194;BME280;44967;48.598;15.650;2023-02-12T15:29:28;100210.00;;;7.27;63.03
59194;BME280;44967;48.598;15.650;2023-02-12T15:31:57;100214.28;;;7.22;63.37